sensor_id;sensor_type;location;lat;lon;timestamp;temperature;humidity
46706;DHT22;33519;50.712;7.124;2023-03-01T00:01:32;-0.60;99.90
46706;DHT22;33519;50.712;7.124;2023-03-01T00:03:59;-0.60;99.90
46706;DHT22;33519;50.712;7.124;2023-03-01T00:06:26;-0.60;99.90
46706;DHT22;33519;50.712;7.124;2023-03-01T00:08:53;-0.70;99.90
46706;DHT22;33519;50.712;7.124;2023-03-01T00:13:47;-0.70;99.90
46706;DHT22;33519;50.712;7.124;2023-03-01T00:16:18;-0.70;99.90
46706;DHT22;33519;50.712;7.124;2023-03-01T00:18:45;-0.60;99.90
46706;DHT22;33519;50.712;7.124;2023-03-01T00:21:12;-0.60;99.90
46706;DHT22;33519;50.712;7.124;2023-03-01T00:23:38;-0.70;99.90
46706;DHT22;33519;50.712;7.124;2023-03-01T00:26:06;-0.70;99.90
46706;DHT22;33519;50.712;7.124;2023-03-01T00:28:33;-0.80;99.90
46706;DHT22;33519;50.712;7.124;2023-03-01T00:31:04;-0.70;99.90
46706;DHT22;33519;50.712;7.124;2023-03-01T00:33:31;-0.70;99.90
46706;DHT22;33519;50.712;7.124;2023-03-01T00:35:58;-0.70;99.90
46706;DHT22;33519;50.712;7.124;2023-03-01T00:38:25;-0.70;99.90
46706;DHT22;33519;50.712;7.124;2023-03-01T00:40:51;-0.70;99.90
46706;DHT22;33519;50.712;7.124;2023-03-01T00:43:18;-0.70;99.90
46706;DHT22;33519;50.712;7.124;2023-03-01T00:45:44;-0.70;99.90
46706;DHT22;33519;50.712;7.124;2023-03-01T00:48:11;-0.60;99.90
46706;DHT22;33519;50.712;7.124;2023-03-01T00:50:38;-0.60;99.90
46706;DHT22;33519;50.712;7.124;2023-03-01T00:53:04;-0.60;99.90
46706;DHT22;33519;50.712;7.124;2023-03-01T00:55:31;-0.60;99.90
46706;DHT22;33519;50.712;7.124;2023-03-01T00:57:58;-0.50;99.90
46706;DHT22;33519;50.712;7.124;2023-03-01T01:00:24;-0.60;99.90
46706;DHT22;33519;50.712;7.124;2023-03-01T01:02:53;-0.70;99.90
46706;DHT22;33519;50.712;7.124;2023-03-01T01:05:20;-0.70;99.90
46706;DHT22;33519;50.712;7.124;2023-03-01T01:07:47;-0.70;99.90
46706;DHT22;33519;50.712;7.124;2023-03-01T01:10:14;-0.80;99.90
46706;DHT22;33519;50.712;7.124;2023-03-01T01:12:46;-0.80;99.90
46706;DHT22;33519;50.712;7.124;2023-03-01T01:15:13;-0.80;99.90
46706;DHT22;33519;50.712;7.124;2023-03-01T01:17:41;-0.80;99.90
46706;DHT22;33519;50.712;7.124;2023-03-01T01:20:08;-0.90;99.90
46706;DHT22;33519;50.712;7.124;2023-03-01T01:22:35;-0.90;99.90
46706;DHT22;33519;50.712;7.124;2023-03-01T01:25:02;-1.00;99.90
46706;DHT22;33519;50.712;7.124;2023-03-01T01:27:29;-1.10;99.90
46706;DHT22;33519;50.712;7.124;2023-03-01T01:29:55;-1.10;99.90
46706;DHT22;33519;50.712;7.124;2023-03-01T01:32:22;-1.20;99.90
46706;DHT22;33519;50.712;7.124;2023-03-01T01:34:52;-1.10;99.90
46706;DHT22;33519;50.712;7.124;2023-03-01T01:37:18;-1.10;99.90
46706;DHT22;33519;50.712;7.124;2023-03-01T01:39:45;-1.20;99.90
46706;DHT22;33519;50.712;7.124;2023-03-01T01:42:15;-1.20;99.90
46706;DHT22;33519;50.712;7.124;2023-03-01T01:44:44;-1.30;99.90
46706;DHT22;33519;50.712;7.124;2023-03-01T01:47:16;-1.40;99.90
46706;DHT22;33519;50.712;7.124;2023-03-01T01:52:18;-1.40;99.90
46706;DHT22;33519;50.712;7.124;2023-03-01T01:55:03;-1.40;99.90
46706;DHT22;33519;50.712;7.124;2023-03-01T01:57:33;-1.40;99.90
46706;DHT22;33519;50.712;7.124;2023-03-01T02:00:03;-1.40;99.90
46706;DHT22;33519;50.712;7.124;2023-03-01T02:02:30;-1.50;99.90
46706;DHT22;33519;50.712;7.124;2023-03-01T02:05:09;-1.50;99.90
46706;DHT22;33519;50.712;7.124;2023-03-01T02:07:38;-1.40;99.90
46706;DHT22;33519;50.712;7.124;2023-03-01T02:10:05;-1.30;99.90
46706;DHT22;33519;50.712;7.124;2023-03-01T02:12:32;-1.40;99.90
46706;DHT22;33519;50.712;7.124;2023-03-01T02:15:00;-1.50;99.90
46706;DHT22;33519;50.712;7.124;2023-03-01T02:17:26;-1.60;99.90
46706;DHT22;33519;50.712;7.124;2023-03-01T02:22:24;-1.70;99.90
46706;DHT22;33519;50.712;7.124;2023-03-01T02:30:22;-1.70;99.90
46706;DHT22;33519;50.712;7.124;2023-03-01T02:32:51;-1.70;99.90
46706;DHT22;33519;50.712;7.124;2023-03-01T02:35:18;-1.80;99.90
46706;DHT22;33519;50.712;7.124;2023-03-01T02:37:45;-1.80;99.90
46706;DHT22;33519;50.712;7.124;2023-03-01T02:40:14;-1.80;99.90
46706;DHT22;33519;50.712;7.124;2023-03-01T02:42:46;-1.80;99.90
46706;DHT22;33519;50.712;7.124;2023-03-01T02:45:13;-1.70;99.90
46706;DHT22;33519;50.712;7.124;2023-03-01T02:47:40;-1.80;99.90
46706;DHT22;33519;50.712;7.124;2023-03-01T02:52:45;-1.80;99.90
46706;DHT22;33519;50.712;7.124;2023-03-01T02:55:14;-1.90;99.90
46706;DHT22;33519;50.712;7.124;2023-03-01T02:57:43;-1.90;99.90
46706;DHT22;33519;50.712;7.124;2023-03-01T03:00:11;-1.80;99.90
46706;DHT22;33519;50.712;7.124;2023-03-01T03:02:46;-1.90;99.90
46706;DHT22;33519;50.712;7.124;2023-03-01T03:05:14;-1.90;99.90
46706;DHT22;33519;50.712;7.124;2023-03-01T03:07:42;-1.90;99.90
46706;DHT22;33519;50.712;7.124;2023-03-01T03:10:11;-1.90;99.90
46706;DHT22;33519;50.712;7.124;2023-03-01T03:12:38;-1.80;99.90
46706;DHT22;33519;50.712;7.124;2023-03-01T03:15:05;-1.80;99.90
46706;DHT22;33519;50.712;7.124;2023-03-01T03:17:36;-1.80;99.90
46706;DHT22;33519;50.712;7.124;2023-03-01T03:20:03;-1.80;99.90
46706;DHT22;33519;50.712;7.124;2023-03-01T03:22:30;-1.80;99.90
46706;DHT22;33519;50.712;7.124;2023-03-01T03:24:57;-1.80;99.90
46706;DHT22;33519;50.712;7.124;2023-03-01T03:27:24;-1.80;99.90
46706;DHT22;33519;50.712;7.124;2023-03-01T03:29:50;-1.80;99.90
46706;DHT22;33519;50.712;7.124;2023-03-01T03:32:17;-1.80;99.90
46706;DHT22;33519;50.712;7.124;2023-03-01T03:34:43;-1.90;99.90
46706;DHT22;33519;50.712;7.124;2023-03-01T03:37:10;-1.90;99.90
46706;DHT22;33519;50.712;7.124;2023-03-01T03:39:56;-2.00;99.90
46706;DHT22;33519;50.712;7.124;2023-03-01T03:42:23;-2.00;99.90
46706;DHT22;33519;50.712;7.124;2023-03-01T03:44:50;-2.00;99.90
46706;DHT22;33519;50.712;7.124;2023-03-01T03:47:16;-2.00;99.90
46706;DHT22;33519;50.712;7.124;2023-03-01T03:52:17;-2.00;99.90
46706;DHT22;33519;50.712;7.124;2023-03-01T03:54:44;-1.90;99.90
46706;DHT22;33519;50.712;7.124;2023-03-01T03:57:10;-2.00;99.90
46706;DHT22;33519;50.712;7.124;2023-03-01T03:59:37;-2.00;99.90
46706;DHT22;33519;50.712;7.124;2023-03-01T04:02:04;-2.00;99.90
46706;DHT22;33519;50.712;7.124;2023-03-01T04:04:30;-2.00;99.90
46706;DHT22;33519;50.712;7.124;2023-03-01T04:06:57;-2.00;99.90
46706;DHT22;33519;50.712;7.124;2023-03-01T04:09:23;-2.10;99.90
46706;DHT22;33519;50.712;7.124;2023-03-01T04:11:50;-2.10;99.90
46706;DHT22;33519;50.712;7.124;2023-03-01T04:14:17;-2.20;99.90
46706;DHT22;33519;50.712;7.124;2023-03-01T04:16:43;-2.20;99.90
46706;DHT22;33519;50.712;7.124;2023-03-01T04:19:10;-2.20;99.90
46706;DHT22;33519;50.712;7.124;2023-03-01T04:21:37;-2.20;99.90
46706;DHT22;33519;50.712;7.124;2023-03-01T04:24:04;-2.20;99.90
46706;DHT22;33519;50.712;7.124;2023-03-01T04:26:35;-2.20;99.90
46706;DHT22;33519;50.712;7.124;2023-03-01T04:29:01;-2.20;99.90
46706;DHT22;33519;50.712;7.124;2023-03-01T04:31:28;-2.20;99.90
46706;DHT22;33519;50.712;7.124;2023-03-01T04:33:55;-2.30;99.90
46706;DHT22;33519;50.712;7.124;2023-03-01T04:36:22;-2.30;99.90
46706;DHT22;33519;50.712;7.124;2023-03-01T04:38:49;-2.30;99.90
46706;DHT22;33519;50.712;7.124;2023-03-01T04:41:17;-2.30;99.90
46706;DHT22;33519;50.712;7.124;2023-03-01T04:43:44;-2.30;99.90
46706;DHT22;33519;50.712;7.124;2023-03-01T04:46:12;-2.40;99.90
46706;DHT22;33519;50.712;7.124;2023-03-01T04:48:41;-2.40;99.90
46706;DHT22;33519;50.712;7.124;2023-03-01T04:51:08;-2.40;99.90
46706;DHT22;33519;50.712;7.124;2023-03-01T04:53:35;-2.40;99.90
46706;DHT22;33519;50.712;7.124;2023-03-01T04:56:04;-2.40;99.90
46706;DHT22;33519;50.712;7.124;2023-03-01T04:58:31;-2.40;99.90
46706;DHT22;33519;50.712;7.124;2023-03-01T05:00:58;-2.40;99.90
46706;DHT22;33519;50.712;7.124;2023-03-01T05:03:24;-2.50;99.90
46706;DHT22;33519;50.712;7.124;2023-03-01T05:05:51;-2.50;99.90
46706;DHT22;33519;50.712;7.124;2023-03-01T05:08:18;-2.50;99.90
46706;DHT22;33519;50.712;7.124;2023-03-01T05:10:53;-2.50;99.90
46706;DHT22;33519;50.712;7.124;2023-03-01T05:13:20;-2.60;99.90
46706;DHT22;33519;50.712;7.124;2023-03-01T05:15:54;-2.70;99.90
46706;DHT22;33519;50.712;7.124;2023-03-01T05:18:21;-2.70;99.90
46706;DHT22;33519;50.712;7.124;2023-03-01T05:20:52;-2.70;99.90
46706;DHT22;33519;50.712;7.124;2023-03-01T05:23:19;-2.80;99.90
46706;DHT22;33519;50.712;7.124;2023-03-01T05:25:45;-2.80;99.90
46706;DHT22;33519;50.712;7.124;2023-03-01T05:28:12;-2.80;99.90
46706;DHT22;33519;50.712;7.124;2023-03-01T05:30:39;-2.80;99.90
46706;DHT22;33519;50.712;7.124;2023-03-01T05:33:06;-2.70;99.90
46706;DHT22;33519;50.712;7.124;2023-03-01T05:35:41;-2.80;99.90
46706;DHT22;33519;50.712;7.124;2023-03-01T05:38:09;-2.70;99.90
46706;DHT22;33519;50.712;7.124;2023-03-01T05:40:40;-2.70;99.90
46706;DHT22;33519;50.712;7.124;2023-03-01T05:43:06;-2.60;99.90
46706;DHT22;33519;50.712;7.124;2023-03-01T05:45:35;-2.60;99.90
46706;DHT22;33519;50.712;7.124;2023-03-01T05:48:02;-2.60;99.90
46706;DHT22;33519;50.712;7.124;2023-03-01T05:50:29;-2.60;99.90
46706;DHT22;33519;50.712;7.124;2023-03-01T05:52:57;-2.60;99.90
46706;DHT22;33519;50.712;7.124;2023-03-01T05:55:24;-2.60;99.90
46706;DHT22;33519;50.712;7.124;2023-03-01T05:57:54;-2.60;99.90
46706;DHT22;33519;50.712;7.124;2023-03-01T06:00:21;-2.60;99.90
46706;DHT22;33519;50.712;7.124;2023-03-01T06:02:50;-2.60;99.90
46706;DHT22;33519;50.712;7.124;2023-03-01T06:05:18;-2.60;99.90
46706;DHT22;33519;50.712;7.124;2023-03-01T06:07:44;-2.70;99.90
46706;DHT22;33519;50.712;7.124;2023-03-01T06:10:11;-2.70;99.90
46706;DHT22;33519;50.712;7.124;2023-03-01T06:12:39;-2.70;99.90
46706;DHT22;33519;50.712;7.124;2023-03-01T06:15:06;-2.70;99.90
46706;DHT22;33519;50.712;7.124;2023-03-01T06:17:34;-2.70;99.90
46706;DHT22;33519;50.712;7.124;2023-03-01T06:22:46;-2.80;99.90
46706;DHT22;33519;50.712;7.124;2023-03-01T06:25:15;-2.70;99.90
46706;DHT22;33519;50.712;7.124;2023-03-01T06:27:42;-2.70;99.90
46706;DHT22;33519;50.712;7.124;2023-03-01T06:30:09;-2.70;99.90
46706;DHT22;33519;50.712;7.124;2023-03-01T06:32:37;-2.80;99.90
46706;DHT22;33519;50.712;7.124;2023-03-01T06:35:04;-2.80;99.90
46706;DHT22;33519;50.712;7.124;2023-03-01T06:37:31;-2.80;99.90
46706;DHT22;33519;50.712;7.124;2023-03-01T06:39:58;-2.70;99.90
46706;DHT22;33519;50.712;7.124;2023-03-01T06:42:24;-2.70;99.90
46706;DHT22;33519;50.712;7.124;2023-03-01T06:44:51;-2.70;99.90
46706;DHT22;33519;50.712;7.124;2023-03-01T06:47:17;-2.70;99.90
46706;DHT22;33519;50.712;7.124;2023-03-01T06:49:44;-2.70;99.90
46706;DHT22;33519;50.712;7.124;2023-03-01T06:52:10;-2.70;99.90
46706;DHT22;33519;50.712;7.124;2023-03-01T06:54:37;-2.70;99.90
46706;DHT22;33519;50.712;7.124;2023-03-01T06:57:03;-2.70;99.90
46706;DHT22;33519;50.712;7.124;2023-03-01T06:59:30;-2.60;99.90
46706;DHT22;33519;50.712;7.124;2023-03-01T07:01:57;-2.60;99.90
46706;DHT22;33519;50.712;7.124;2023-03-01T07:04:24;-2.50;99.90
46706;DHT22;33519;50.712;7.124;2023-03-01T07:06:50;-2.50;99.90
46706;DHT22;33519;50.712;7.124;2023-03-01T07:09:22;-2.40;99.90
46706;DHT22;33519;50.712;7.124;2023-03-01T07:11:49;-2.30;99.90
46706;DHT22;33519;50.712;7.124;2023-03-01T07:14:16;-2.30;99.90
46706;DHT22;33519;50.712;7.124;2023-03-01T07:16:42;-2.20;99.90
46706;DHT22;33519;50.712;7.124;2023-03-01T07:19:09;-2.20;99.90
46706;DHT22;33519;50.712;7.124;2023-03-01T07:21:36;-2.20;99.90
46706;DHT22;33519;50.712;7.124;2023-03-01T07:24:05;-2.20;99.90
46706;DHT22;33519;50.712;7.124;2023-03-01T07:26:32;-2.10;99.90
46706;DHT22;33519;50.712;7.124;2023-03-01T07:28:59;-2.10;99.90
46706;DHT22;33519;50.712;7.124;2023-03-01T07:31:26;-2.10;99.90
46706;DHT22;33519;50.712;7.124;2023-03-01T07:33:54;-2.10;99.90
46706;DHT22;33519;50.712;7.124;2023-03-01T07:36:21;-2.10;99.90
46706;DHT22;33519;50.712;7.124;2023-03-01T07:38:49;-2.00;99.90
46706;DHT22;33519;50.712;7.124;2023-03-01T07:41:16;-2.00;99.90
46706;DHT22;33519;50.712;7.124;2023-03-01T07:43:42;-1.90;99.90
46706;DHT22;33519;50.712;7.124;2023-03-01T07:46:09;-1.70;99.90
46706;DHT22;33519;50.712;7.124;2023-03-01T07:48:36;-1.70;99.90
46706;DHT22;33519;50.712;7.124;2023-03-01T07:51:04;-1.60;99.90
46706;DHT22;33519;50.712;7.124;2023-03-01T07:53:31;-1.40;99.90
46706;DHT22;33519;50.712;7.124;2023-03-01T07:56:01;-1.30;99.90
46706;DHT22;33519;50.712;7.124;2023-03-01T07:58:28;-1.30;99.90
46706;DHT22;33519;50.712;7.124;2023-03-01T08:01:00;-1.30;99.90
46706;DHT22;33519;50.712;7.124;2023-03-01T08:03:27;-1.10;99.90
46706;DHT22;33519;50.712;7.124;2023-03-01T08:05:54;-1.10;99.90
46706;DHT22;33519;50.712;7.124;2023-03-01T08:08:22;-0.90;99.90
46706;DHT22;33519;50.712;7.124;2023-03-01T08:10:48;-0.80;99.90
46706;DHT22;33519;50.712;7.124;2023-03-01T08:13:15;-0.70;99.90
46706;DHT22;33519;50.712;7.124;2023-03-01T08:15:41;-0.70;99.90
46706;DHT22;33519;50.712;7.124;2023-03-01T08:18:08;-0.60;99.90
46706;DHT22;33519;50.712;7.124;2023-03-01T08:20:35;-0.60;99.90
46706;DHT22;33519;50.712;7.124;2023-03-01T08:23:01;-0.50;99.90
46706;DHT22;33519;50.712;7.124;2023-03-01T08:25:28;-0.40;99.90
46706;DHT22;33519;50.712;7.124;2023-03-01T08:27:54;-0.20;99.90
46706;DHT22;33519;50.712;7.124;2023-03-01T08:30:21;0.00;99.90
46706;DHT22;33519;50.712;7.124;2023-03-01T08:32:50;0.10;99.90
46706;DHT22;33519;50.712;7.124;2023-03-01T08:35:17;0.20;99.90
46706;DHT22;33519;50.712;7.124;2023-03-01T08:37:43;0.10;99.90
46706;DHT22;33519;50.712;7.124;2023-03-01T08:40:10;0.40;99.90
46706;DHT22;33519;50.712;7.124;2023-03-01T08:42:37;0.40;99.90
46706;DHT22;33519;50.712;7.124;2023-03-01T08:45:04;0.60;99.90
46706;DHT22;33519;50.712;7.124;2023-03-01T08:47:30;0.80;99.90
46706;DHT22;33519;50.712;7.124;2023-03-01T08:49:57;1.10;99.90
46706;DHT22;33519;50.712;7.124;2023-03-01T08:52:23;1.20;99.90
46706;DHT22;33519;50.712;7.124;2023-03-01T08:54:50;1.30;99.90
46706;DHT22;33519;50.712;7.124;2023-03-01T08:57:17;1.30;99.90
46706;DHT22;33519;50.712;7.124;2023-03-01T08:59:43;1.70;99.90
46706;DHT22;33519;50.712;7.124;2023-03-01T09:02:12;2.20;99.90
46706;DHT22;33519;50.712;7.124;2023-03-01T09:04:39;2.70;99.90
46706;DHT22;33519;50.712;7.124;2023-03-01T09:07:05;2.80;99.90
46706;DHT22;33519;50.712;7.124;2023-03-01T09:09:32;3.60;99.90
46706;DHT22;33519;50.712;7.124;2023-03-01T09:11:58;5.10;99.30
46706;DHT22;33519;50.712;7.124;2023-03-01T09:14:25;6.90;93.40
46706;DHT22;33519;50.712;7.124;2023-03-01T09:16:51;7.10;91.90
46706;DHT22;33519;50.712;7.124;2023-03-01T09:19:18;8.00;89.40
46706;DHT22;33519;50.712;7.124;2023-03-01T09:21:45;8.50;82.00
46706;DHT22;33519;50.712;7.124;2023-03-01T09:24:19;9.30;82.00
46706;DHT22;33519;50.712;7.124;2023-03-01T09:26:47;10.60;76.00
46706;DHT22;33519;50.712;7.124;2023-03-01T09:29:16;9.60;72.10
46706;DHT22;33519;50.712;7.124;2023-03-01T09:31:42;9.20;75.40
46706;DHT22;33519;50.712;7.124;2023-03-01T09:34:09;10.40;72.70
46706;DHT22;33519;50.712;7.124;2023-03-01T09:36:36;11.30;70.10
46706;DHT22;33519;50.712;7.124;2023-03-01T09:39:03;11.20;70.00
46706;DHT22;33519;50.712;7.124;2023-03-01T09:41:38;10.20;68.40
46706;DHT22;33519;50.712;7.124;2023-03-01T09:46:44;10.50;67.30
46706;DHT22;33519;50.712;7.124;2023-03-01T09:49:15;10.50;67.20
46706;DHT22;33519;50.712;7.124;2023-03-01T09:51:56;10.40;67.40
46706;DHT22;33519;50.712;7.124;2023-03-01T09:54:23;11.20;66.30
46706;DHT22;33519;50.712;7.124;2023-03-01T09:57:04;12.20;64.80
46706;DHT22;33519;50.712;7.124;2023-03-01T10:00:15;11.90;63.60
46706;DHT22;33519;50.712;7.124;2023-03-01T10:05:18;12.20;62.60
46706;DHT22;33519;50.712;7.124;2023-03-01T10:10:23;12.10;61.30
46706;DHT22;33519;50.712;7.124;2023-03-01T10:12:52;12.40;60.80
46706;DHT22;33519;50.712;7.124;2023-03-01T10:15:31;12.90;61.30
46706;DHT22;33519;50.712;7.124;2023-03-01T10:18:00;12.70;60.10
46706;DHT22;33519;50.712;7.124;2023-03-01T10:21:14;13.30;59.70
46706;DHT22;33519;50.712;7.124;2023-03-01T10:23:19;13.10;58.40
46706;DHT22;33519;50.712;7.124;2023-03-01T10:26:07;13.40;57.30
46706;DHT22;33519;50.712;7.124;2023-03-01T10:31:01;11.80;61.50
46706;DHT22;33519;50.712;7.124;2023-03-01T10:33:31;12.70;58.90
46706;DHT22;33519;50.712;7.124;2023-03-01T10:35:58;13.00;58.20
46706;DHT22;33519;50.712;7.124;2023-03-01T10:38:27;12.20;59.00
46706;DHT22;33519;50.712;7.124;2023-03-01T10:40:57;12.90;58.80
46706;DHT22;33519;50.712;7.124;2023-03-01T10:43:25;13.60;57.40
46706;DHT22;33519;50.712;7.124;2023-03-01T10:45:53;13.00;56.70
46706;DHT22;33519;50.712;7.124;2023-03-01T10:48:21;13.30;57.70
46706;DHT22;33519;50.712;7.124;2023-03-01T10:51:04;12.70;57.40
46706;DHT22;33519;50.712;7.124;2023-03-01T10:53:40;13.50;58.20
46706;DHT22;33519;50.712;7.124;2023-03-01T10:56:08;13.60;58.70
46706;DHT22;33519;50.712;7.124;2023-03-01T10:58:36;14.90;56.60
46706;DHT22;33519;50.712;7.124;2023-03-01T11:03:33;15.30;55.80
46706;DHT22;33519;50.712;7.124;2023-03-01T11:08:31;12.20;59.00
46706;DHT22;33519;50.712;7.124;2023-03-01T11:14:20;13.00;58.50
46706;DHT22;33519;50.712;7.124;2023-03-01T11:17:00;12.80;58.60
46706;DHT22;33519;50.712;7.124;2023-03-01T11:19:27;12.60;58.80
46706;DHT22;33519;50.712;7.124;2023-03-01T11:24:20;12.00;61.00
46706;DHT22;33519;50.712;7.124;2023-03-01T11:26:52;11.10;59.70
46706;DHT22;33519;50.712;7.124;2023-03-01T11:31:49;11.00;61.60
46706;DHT22;33519;50.712;7.124;2023-03-01T11:34:36;11.20;60.80
46706;DHT22;33519;50.712;7.124;2023-03-01T11:45:02;11.40;60.70
46706;DHT22;33519;50.712;7.124;2023-03-01T11:47:33;11.60;60.20
46706;DHT22;33519;50.712;7.124;2023-03-01T11:50:14;12.00;60.70
46706;DHT22;33519;50.712;7.124;2023-03-01T11:52:52;12.30;60.10
46706;DHT22;33519;50.712;7.124;2023-03-01T11:58:16;12.10;59.50
46706;DHT22;33519;50.712;7.124;2023-03-01T12:32:33;13.40;55.90
46706;DHT22;33519;50.712;7.124;2023-03-01T12:37:36;12.40;58.50
46706;DHT22;33519;50.712;7.124;2023-03-01T12:40:45;12.20;58.30
46706;DHT22;33519;50.712;7.124;2023-03-01T12:50:46;12.90;58.30
46706;DHT22;33519;50.712;7.124;2023-03-01T12:53:18;12.70;55.40
46706;DHT22;33519;50.712;7.124;2023-03-01T12:55:46;12.20;55.30
46706;DHT22;33519;50.712;7.124;2023-03-01T13:01:16;13.60;57.20
46706;DHT22;33519;50.712;7.124;2023-03-01T13:06:15;11.70;58.50
46706;DHT22;33519;50.712;7.124;2023-03-01T13:09:03;12.00;56.80
46706;DHT22;33519;50.712;7.124;2023-03-01T13:11:33;13.00;55.40
46706;DHT22;33519;50.712;7.124;2023-03-01T13:17:00;11.90;56.40
46706;DHT22;33519;50.712;7.124;2023-03-01T13:19:27;12.50;58.50
46706;DHT22;33519;50.712;7.124;2023-03-01T13:22:00;12.80;54.00
46706;DHT22;33519;50.712;7.124;2023-03-01T13:24:47;13.90;55.40
46706;DHT22;33519;50.712;7.124;2023-03-01T13:34:53;14.20;53.70
46706;DHT22;33519;50.712;7.124;2023-03-01T13:37:21;13.00;54.20
46706;DHT22;33519;50.712;7.124;2023-03-01T13:39:48;13.40;55.70
46706;DHT22;33519;50.712;7.124;2023-03-01T13:42:33;12.20;56.30
46706;DHT22;33519;50.712;7.124;2023-03-01T13:45:00;12.60;55.50
46706;DHT22;33519;50.712;7.124;2023-03-01T13:47:26;12.20;55.40
46706;DHT22;33519;50.712;7.124;2023-03-01T13:50:00;12.20;55.20
46706;DHT22;33519;50.712;7.124;2023-03-01T13:52:43;12.60;54.30
46706;DHT22;33519;50.712;7.124;2023-03-01T13:57:41;12.50;53.80
46706;DHT22;33519;50.712;7.124;2023-03-01T14:05:35;12.90;53.10
46706;DHT22;33519;50.712;7.124;2023-03-01T14:08:03;12.50;54.20
46706;DHT22;33519;50.712;7.124;2023-03-01T14:10:39;12.30;53.20
46706;DHT22;33519;50.712;7.124;2023-03-01T14:13:14;12.30;58.50
46706;DHT22;33519;50.712;7.124;2023-03-01T14:19:07;13.80;55.30
46706;DHT22;33519;50.712;7.124;2023-03-01T14:21:39;13.80;56.70
46706;DHT22;33519;50.712;7.124;2023-03-01T14:24:13;13.90;53.00
46706;DHT22;33519;50.712;7.124;2023-03-01T14:26:41;13.80;53.60
46706;DHT22;33519;50.712;7.124;2023-03-01T14:29:22;13.50;53.20
46706;DHT22;33519;50.712;7.124;2023-03-01T14:31:49;12.00;56.90
46706;DHT22;33519;50.712;7.124;2023-03-01T14:34:20;12.90;55.80
46706;DHT22;33519;50.712;7.124;2023-03-01T14:36:47;13.70;54.20
46706;DHT22;33519;50.712;7.124;2023-03-01T14:39:17;14.00;53.70
46706;DHT22;33519;50.712;7.124;2023-03-01T14:41:44;13.70;55.20
46706;DHT22;33519;50.712;7.124;2023-03-01T14:44:15;14.30;52.90
46706;DHT22;33519;50.712;7.124;2023-03-01T14:46:44;13.10;55.20
46706;DHT22;33519;50.712;7.124;2023-03-01T14:49:13;12.60;55.30
46706;DHT22;33519;50.712;7.124;2023-03-01T14:51:42;12.60;54.60
46706;DHT22;33519;50.712;7.124;2023-03-01T14:54:19;12.10;54.40
46706;DHT22;33519;50.712;7.124;2023-03-01T14:56:46;12.60;56.40
46706;DHT22;33519;50.712;7.124;2023-03-01T14:59:13;12.70;56.30
46706;DHT22;33519;50.712;7.124;2023-03-01T15:01:41;12.30;52.80
46706;DHT22;33519;50.712;7.124;2023-03-01T15:04:10;12.30;53.50
46706;DHT22;33519;50.712;7.124;2023-03-01T15:06:37;12.70;52.40
46706;DHT22;33519;50.712;7.124;2023-03-01T15:09:04;13.40;51.50
46706;DHT22;33519;50.712;7.124;2023-03-01T15:11:32;14.10;51.80
46706;DHT22;33519;50.712;7.124;2023-03-01T15:13:59;14.20;53.10
46706;DHT22;33519;50.712;7.124;2023-03-01T15:16:27;14.30;51.90
46706;DHT22;33519;50.712;7.124;2023-03-01T15:18:55;15.10;52.00
46706;DHT22;33519;50.712;7.124;2023-03-01T15:21:24;14.10;50.10
46706;DHT22;33519;50.712;7.124;2023-03-01T15:23:54;14.10;52.80
46706;DHT22;33519;50.712;7.124;2023-03-01T15:26:25;14.30;51.30
46706;DHT22;33519;50.712;7.124;2023-03-01T15:28:52;14.40;50.60
46706;DHT22;33519;50.712;7.124;2023-03-01T15:31:22;13.90;50.00
46706;DHT22;33519;50.712;7.124;2023-03-01T15:33:49;12.80;50.60
46706;DHT22;33519;50.712;7.124;2023-03-01T15:39:05;13.50;50.50
46706;DHT22;33519;50.712;7.124;2023-03-01T15:41:37;14.80;50.10
46706;DHT22;33519;50.712;7.124;2023-03-01T15:44:14;15.10;48.90
46706;DHT22;33519;50.712;7.124;2023-03-01T15:46:44;15.40;47.90
46706;DHT22;33519;50.712;7.124;2023-03-01T15:49:45;15.30;48.00
46706;DHT22;33519;50.712;7.124;2023-03-01T15:54:40;16.10;46.60
46706;DHT22;33519;50.712;7.124;2023-03-01T15:57:12;16.10;47.90
46706;DHT22;33519;50.712;7.124;2023-03-01T15:59:39;16.20;47.30
46706;DHT22;33519;50.712;7.124;2023-03-01T16:02:10;17.00;46.10
46706;DHT22;33519;50.712;7.124;2023-03-01T16:04:39;17.70;45.50
46706;DHT22;33519;50.712;7.124;2023-03-01T16:07:05;16.90;44.50
46706;DHT22;33519;50.712;7.124;2023-03-01T16:09:32;16.80;44.80
46706;DHT22;33519;50.712;7.124;2023-03-01T16:11:58;16.10;44.50
46706;DHT22;33519;50.712;7.124;2023-03-01T16:14:25;15.30;45.50
46706;DHT22;33519;50.712;7.124;2023-03-01T16:16:51;15.50;45.90
46706;DHT22;33519;50.712;7.124;2023-03-01T16:19:18;15.80;45.40
46706;DHT22;33519;50.712;7.124;2023-03-01T16:21:44;16.30;46.50
46706;DHT22;33519;50.712;7.124;2023-03-01T16:24:13;16.80;45.90
46706;DHT22;33519;50.712;7.124;2023-03-01T16:26:40;16.40;44.50
46706;DHT22;33519;50.712;7.124;2023-03-01T16:29:07;15.50;45.00
46706;DHT22;33519;50.712;7.124;2023-03-01T16:31:34;14.90;47.40
46706;DHT22;33519;50.712;7.124;2023-03-01T16:34:01;15.30;47.20
46706;DHT22;33519;50.712;7.124;2023-03-01T16:36:33;15.20;46.30
46706;DHT22;33519;50.712;7.124;2023-03-01T16:39:01;14.50;47.00
46706;DHT22;33519;50.712;7.124;2023-03-01T16:41:29;14.00;49.00
46706;DHT22;33519;50.712;7.124;2023-03-01T16:43:56;13.80;50.20
46706;DHT22;33519;50.712;7.124;2023-03-01T16:46:24;13.80;50.80
46706;DHT22;33519;50.712;7.124;2023-03-01T16:48:51;13.20;51.50
46706;DHT22;33519;50.712;7.124;2023-03-01T16:51:19;11.40;54.70
46706;DHT22;33519;50.712;7.124;2023-03-01T16:53:46;11.10;56.80
46706;DHT22;33519;50.712;7.124;2023-03-01T16:56:13;10.70;57.90
46706;DHT22;33519;50.712;7.124;2023-03-01T16:58:40;10.20;59.00
46706;DHT22;33519;50.712;7.124;2023-03-01T17:01:11;9.50;59.80
46706;DHT22;33519;50.712;7.124;2023-03-01T17:03:38;9.20;61.10
46706;DHT22;33519;50.712;7.124;2023-03-01T17:06:06;9.00;62.30
46706;DHT22;33519;50.712;7.124;2023-03-01T17:08:33;8.90;62.90
46706;DHT22;33519;50.712;7.124;2023-03-01T17:11:07;8.80;63.40
46706;DHT22;33519;50.712;7.124;2023-03-01T17:13:35;8.60;63.80
46706;DHT22;33519;50.712;7.124;2023-03-01T17:16:03;8.30;65.00
46706;DHT22;33519;50.712;7.124;2023-03-01T17:18:30;8.30;65.20
46706;DHT22;33519;50.712;7.124;2023-03-01T17:20:57;8.10;65.70
46706;DHT22;33519;50.712;7.124;2023-03-01T17:23:24;7.90;66.20
46706;DHT22;33519;50.712;7.124;2023-03-01T17:25:51;7.80;67.20
46706;DHT22;33519;50.712;7.124;2023-03-01T17:28:20;7.60;66.90
46706;DHT22;33519;50.712;7.124;2023-03-01T17:30:46;7.60;67.20
46706;DHT22;33519;50.712;7.124;2023-03-01T17:33:13;7.60;66.00
46706;DHT22;33519;50.712;7.124;2023-03-01T17:35:40;7.60;63.60
46706;DHT22;33519;50.712;7.124;2023-03-01T17:38:07;7.50;63.30
46706;DHT22;33519;50.712;7.124;2023-03-01T17:40:33;7.50;62.70
46706;DHT22;33519;50.712;7.124;2023-03-01T17:43:01;7.50;63.10
46706;DHT22;33519;50.712;7.124;2023-03-01T17:45:28;7.40;62.80
46706;DHT22;33519;50.712;7.124;2023-03-01T17:47:55;7.30;62.70
46706;DHT22;33519;50.712;7.124;2023-03-01T17:50:22;7.30;62.30
46706;DHT22;33519;50.712;7.124;2023-03-01T17:52:48;7.20;62.10